Time;durP1;ratioP1;P1;durP2;ratioP2;P2;SDS_P1;SDS_P2;PMS_P1;PMS_P2;Temp;Humidity;BMP_temperature;BMP_pressure;BME280_temperature;BME280_humidity;BME280_pressure;Samples;Min_cycle;Max_cycle;Signal;HPM_P1;HPM_P2
2022/11/09 00:00:35;;;;;;;34.68;31.56;;;;;;;4.54;74.46;101724.73;455627;116;922919;-75
2022/11/09 00:01:38;;;;;;;34.11;31.09;;;;;;;4.55;74.55;101726.44;455307;116;922654;-75
2022/11/09 00:02:41;;;;;;;37.65;33.75;;;;;;;4.55;74.50;101726.44;455245;116;922660;-75
2022/11/09 00:03:47;;;;;;;35.94;32.29;;;;;;;4.57;74.52;101729.00;455067;116;922480;-75
2022/11/09 00:04:50;;;;;;;34.73;31.33;;;;;;;4.58;74.46;101720.72;455224;116;922866;-75
2022/11/09 00:05:57;;;;;;;34.56;31.31;;;;;;;4.58;74.42;101725.27;455195;116;928015;-75
2022/11/09 00:07:00;;;;;;;35.98;32.41;;;;;;;4.57;74.28;101724.45;455057;116;922633;-75
2022/11/09 00:08:08;;;;;;;33.56;30.15;;;;;;;4.56;74.21;101728.14;455207;116;923107;-75
2022/11/09 00:09:11;;;;;;;33.94;30.58;;;;;;;4.55;74.25;101729.14;455068;116;930562;-75
2022/11/09 00:10:15;;;;;;;33.42;30.26;;;;;;;4.54;74.21;101723.88;455176;116;922572;-76
2022/11/09 00:11:18;;;;;;;31.46;28.36;;;;;;;4.53;74.21;101719.47;455252;116;922884;-74
2022/11/09 00:12:21;;;;;;;32.57;29.62;;;;;;;4.53;74.11;101716.77;455299;116;922599;-75
2022/11/09 00:13:24;;;;;;;31.81;28.62;;;;;;;4.53;74.12;101717.62;455289;116;922677;-75
2022/11/09 00:14:27;;;;;;;30.91;28.14;;;;;;;4.53;74.21;101722.17;455349;116;923084;-75
2022/11/09 00:15:30;;;;;;;30.65;28.03;;;;;;;4.53;74.16;101720.32;455292;116;922543;-75
2022/11/09 00:16:33;;;;;;;30.03;27.46;;;;;;;4.53;74.22;101723.02;457111;115;922599;-75
2022/11/09 00:17:36;;;;;;;31.34;28.14;;;;;;;4.53;74.22;101722.17;459002;115;922558;-75
2022/11/09 00:18:40;;;;;;;31.02;28.31;;;;;;;4.53;74.18;101723.02;458962;115;923289;-75
2022/11/09 00:19:43;;;;;;;33.30;29.88;;;;;;;4.53;74.20;101725.72;458801;115;922586;-75
2022/11/09 00:20:46;;;;;;;30.85;28.27;;;;;;;4.56;74.24;101729.99;458891;115;930530;-75
2022/11/09 00:21:51;;;;;;;32.44;29.38;;;;;;;4.56;74.22;101725.45;458775;115;922516;-75
2022/11/09 00:22:53;;;;;;;30.59;27.96;;;;;;;4.57;74.16;101726.30;458981;115;923004;-75
2022/11/09 00:23:56;;;;;;;30.59;28.06;;;;;;;4.57;74.12;101727.16;459059;115;923022;-75
2022/11/09 00:24:59;;;;;;;31.44;28.53;;;;;;;4.59;74.14;101719.73;459009;115;923153;-75
2022/11/09 00:26:04;;;;;;;31.61;28.85;;;;;;;4.59;74.14;101727.84;458967;115;922569;-75
2022/11/09 00:27:07;;;;;;;31.70;28.95;;;;;;;4.60;74.16;101726.84;458787;115;922997;-75
2022/11/09 00:28:10;;;;;;;32.43;29.20;;;;;;;4.63;74.14;101736.52;450436;117;922605;-76
2022/11/09 00:29:13;;;;;;;30.79;28.23;;;;;;;4.63;74.14;101734.63;450656;115;922651;-75
2022/11/09 00:30:16;;;;;;;31.26;28.42;;;;;;;4.65;74.18;101726.39;454977;115;922945;-74
2022/11/09 00:31:23;;;;;;;31.28;28.51;;;;;;;4.66;74.03;101736.20;444435;119;922587;-75
2022/11/09 00:32:26;;;;;;;31.30;28.45;;;;;;;4.65;73.88;101741.74;447951;115;930534;-75
2022/11/09 00:33:30;;;;;;;31.53;28.72;;;;;;;4.63;73.74;101736.52;458138;115;930361;-74
2022/11/09 00:34:33;;;;;;;30.01;27.52;;;;;;;4.60;73.65;101734.95;450155;118;922901;-75
2022/11/09 00:35:38;;;;;;;30.41;27.73;;;;;;;4.59;73.59;101729.68;450101;118;922656;-75
2022/11/09 00:36:41;;;;;;;30.24;27.71;;;;;;;4.57;73.53;101739.80;450655;115;922524;-75
2022/11/09 00:37:44;;;;;;;31.71;28.56;;;;;;;4.54;73.51;101738.23;458417;115;922578;-74
2022/11/09 00:38:50;;;;;;;26.68;24.26;;;;;;;4.53;73.50;101738.37;458449;115;922570;-75
2022/11/09 00:39:53;;;;;;;26.01;24.03;;;;;;;4.52;73.51;101744.80;458240;115;922805;-75
2022/11/09 00:41:04;;;;;;;27.30;24.99;;;;;;;4.49;73.51;101732.42;458459;115;922475;-75
2022/11/09 00:42:07;;;;;;;27.33;25.08;;;;;;;4.49;73.61;101731.57;458210;115;923084;-75
2022/11/09 00:43:11;;;;;;;24.92;22.84;;;;;;;4.47;73.50;101731.70;458403;115;922463;-75
2022/11/09 00:44:14;;;;;;;24.57;22.69;;;;;;;4.45;73.54;101731.03;458378;115;922716;-74
2022/11/09 00:45:17;;;;;;;23.92;22.15;;;;;;;4.44;73.50;101732.02;458344;115;922599;-75
2022/11/09 00:46:20;;;;;;;24.24;22.37;;;;;;;4.42;73.56;101741.25;458335;115;922481;-75
2022/11/09 00:47:25;;;;;;;23.08;21.28;;;;;;;4.39;73.49;101737.02;458146;115;922518;-75
2022/11/09 00:48:28;;;;;;;23.82;21.96;;;;;;;4.38;73.60;101738.00;458326;115;922506;-75
2022/11/09 00:49:31;;;;;;;24.56;22.37;;;;;;;4.37;73.59;101738.99;458395;115;922596;-75
2022/11/09 00:50:34;;;;;;;24.72;22.73;;;;;;;4.38;73.68;101739.84;458399;115;922613;-75
2022/11/09 00:51:37;;;;;;;25.05;23.20;;;;;;;4.39;73.81;101741.56;458412;115;922540;-75
2022/11/09 00:52:40;;;;;;;25.53;23.33;;;;;;;4.40;73.80;101736.02;457340;116;922794;-75
2022/11/09 00:53:47;;;;;;;25.73;23.77;;;;;;;4.42;73.83;101741.25;457322;115;922472;-75
2022/11/09 00:54:48;;;;;;;26.32;24.13;;;;;;;4.44;73.85;101739.27;458157;115;922534;-75
2022/11/09 00:56:00;;;;;;;23.21;21.37;;;;;;;4.46;73.83;101738.14;458336;115;922521;-75
2022/11/09 00:57:03;;;;;;;22.64;20.79;;;;;;;4.47;73.82;101739.81;458096;115;922590;-76
2022/11/09 00:58:06;;;;;;;23.12;21.50;;;;;;;4.48;73.77;101740.67;458345;115;922528;-75
2022/11/09 00:59:10;;;;;;;24.51;22.54;;;;;;;4.48;73.81;101741.52;458321;115;922848;-74
2022/11/09 01:00:19;;;;;;;25.80;23.64;;;;;;;4.49;73.72;101745.08;458243;115;922474;-75
2022/11/09 01:01:23;;;;;;;24.38;22.27;;;;;;;4.49;73.65;101745.08;458082;115;922562;-75
2022/11/09 01:02:26;;;;;;;24.25;22.45;;;;;;;4.47;73.65;101745.22;458203;115;922439;-76
2022/11/09 01:03:31;;;;;;;24.95;23.05;;;;;;;4.46;73.61;101748.94;458225;115;922917;-75
2022/11/09 01:04:36;;;;;;;24.25;22.48;;;;;;;4.45;73.52;101746.38;458147;115;928603;-75
2022/11/09 01:05:39;;;;;;;25.01;23.05;;;;;;;4.43;73.46;101751.06;458267;115;922650;-75
2022/11/09 01:06:42;;;;;;;24.54;22.51;;;;;;;4.43;73.47;101748.36;458385;115;922959;-75
2022/11/09 01:07:45;;;;;;;25.04;22.66;;;;;;;4.41;73.39;101737.70;458413;115;922616;-74
2022/11/09 01:08:49;;;;;;;25.59;23.52;;;;;;;4.42;73.49;101742.10;458381;115;922618;-74
2022/11/09 01:09:53;;;;;;;23.58;21.61;;;;;;;4.41;73.53;101734.17;458291;115;922657;-75
2022/11/09 01:10:59;;;;;;;23.20;21.38;;;;;;;4.41;73.56;101736.88;458158;115;922760;-76
2022/11/09 01:12:02;;;;;;;24.39;22.41;;;;;;;4.40;73.51;101733.32;457854;115;922874;-76
2022/11/09 01:13:05;;;;;;;23.27;21.43;;;;;;;4.40;73.52;101737.86;458280;115;922551;-76
2022/11/09 01:14:09;;;;;;;26.62;24.36;;;;;;;4.40;73.51;101737.86;458421;115;922876;-75
2022/11/09 01:15:12;;;;;;;26.52;24.26;;;;;;;4.40;73.52;101737.86;458287;115;923148;-76
2022/11/09 01:16:19;;;;;;;25.14;23.09;;;;;;;4.38;73.56;101735.30;456297;115;922899;-75
2022/11/09 01:17:22;;;;;;;25.60;23.49;;;;;;;4.38;73.46;101735.30;450281;117;922562;-76
2022/11/09 01:18:25;;;;;;;26.50;24.36;;;;;;;4.37;73.50;101738.99;450464;117;923233;-75
2022/11/09 01:19:29;;;;;;;28.08;25.57;;;;;;;4.37;73.51;101736.30;450360;117;922495;-75
2022/11/09 01:20:32;;;;;;;25.88;23.66;;;;;;;4.36;73.61;101736.44;450367;117;930261;-76
2022/11/09 01:21:35;;;;;;;23.77;21.94;;;;;;;4.36;73.48;101741.83;450392;117;922549;-76
2022/11/09 01:22:38;;;;;;;23.99;22.26;;;;;;;4.34;73.50;101739.30;450454;116;922595;-76
2022/11/09 01:23:42;;;;;;;25.86;23.62;;;;;;;4.33;73.36;101736.73;450467;117;923518;-76
2022/11/09 01:24:45;;;;;;;25.24;23.15;;;;;;;4.31;73.36;101733.32;450428;117;922936;-76
2022/11/09 01:25:48;;;;;;;26.03;23.96;;;;;;;4.28;73.40;101742.58;450437;117;922803;-76
2022/11/09 01:26:51;;;;;;;27.21;24.80;;;;;;;4.28;73.52;101739.03;450466;117;923081;-76
2022/11/09 01:27:58;;;;;;;28.19;25.80;;;;;;;4.27;73.49;101743.58;450332;117;922471;-76
2022/11/09 01:29:01;;;;;;;29.01;26.61;;;;;;;4.26;73.43;101741.86;450273;117;922591;-76
2022/11/09 01:30:05;;;;;;;29.66;27.17;;;;;;;4.25;73.35;101732.05;453860;115;923049;-75
2022/11/09 01:31:14;;;;;;;28.99;26.35;;;;;;;4.23;73.33;101733.22;458161;115;923275;-75
2022/11/09 01:32:17;;;;;;;29.07;26.32;;;;;;;4.20;73.30;101732.50;453540;115;922609;-75
2022/11/09 01:33:20;;;;;;;28.39;25.97;;;;;;;4.18;73.28;101733.66;448587;118;922492;-76
2022/11/09 01:34:26;;;;;;;28.53;26.22;;;;;;;4.16;73.26;101735.64;450085;115;922521;-76
2022/11/09 01:35:30;;;;;;;29.32;26.62;;;;;;;4.15;73.25;101739.33;442055;120;922584;-73
2022/11/09 01:36:34;;;;;;;28.49;26.02;;;;;;;4.12;73.21;101740.48;439906;120;922524;-73
2022/11/09 01:37:37;;;;;;;29.39;26.91;;;;;;;4.10;73.25;101733.52;449742;118;922666;-74
2022/11/09 01:38:40;;;;;;;28.57;26.24;;;;;;;4.08;73.31;101743.62;449728;118;922569;-74
2022/11/09 01:39:44;;;;;;;28.55;26.31;;;;;;;4.04;73.32;101740.34;449627;118;923036;-74
2022/11/09 01:40:47;;;;;;;29.42;26.87;;;;;;;4.03;73.33;101737.78;445367;118;922983;-76
2022/11/09 01:41:50;;;;;;;27.96;25.61;;;;;;;4.02;73.35;101741.50;442187;120;922529;-74
2022/11/09 01:42:53;;;;;;;30.51;27.44;;;;;;;3.99;73.32;101739.08;442155;120;922508;-74
2022/11/09 01:44:08;;;;;;;31.16;28.38;;;;;;;3.98;73.24;101745.46;442117;120;922965;-75
2022/11/09 01:45:23;;;;;;;32.47;29.19;;;;;;;3.95;73.24;101746.62;441898;120;923214;-74
2022/11/09 01:46:30;;;;;;;30.84;28.14;;;;;;;3.91;73.20;101747.05;441961;120;922680;-74
2022/11/09 01:47:33;;;;;;;28.85;26.61;;;;;;;3.87;73.30;101751.01;433512;122;923351;-74
2022/11/09 01:48:46;;;;;;;29.22;26.64;;;;;;;3.85;73.25;101753.02;442055;117;923603;-76
2022/11/09 01:49:55;;;;;;;29.33;27.00;;;;;;;3.81;73.29;101747.03;449578;117;922534;-75
2022/11/09 01:51:05;;;;;;;30.45;27.74;;;;;;;3.80;73.44;101756.15;450175;117;922544;-75
2022/11/09 01:52:12;;;;;;;33.72;30.47;;;;;;;3.77;73.39;101751.87;441539;120;923032;-75
2022/11/09 01:53:23;;;;;;;41.16;36.16;;;;;;;3.73;73.25;101761.25;442449;117;922784;-75
2022/11/09 01:54:32;;;;;;;38.42;34.49;;;;;;;3.70;73.25;101763.36;449546;117;922625;-75
2022/11/09 01:55:38;;;;;;;40.43;35.76;;;;;;;3.66;73.36;101761.95;450228;117;922905;-75
2022/11/09 01:56:43;;;;;;;43.49;36.96;;;;;;;3.63;73.32;101763.09;450340;117;922594;-76
2022/11/09 01:57:53;;;;;;;41.50;36.51;;;;;;;3.61;73.37;101756.13;450276;117;922663;-75
2022/11/09 01:58:59;;;;;;;47.61;38.39;;;;;;;3.58;73.34;101762.67;450227;117;922533;-75
2022/11/09 02:00:07;;;;;;;44.88;37.98;;;;;;;3.56;73.37;101764.64;450222;117;923062;-75
2022/11/09 02:01:17;;;;;;;43.27;35.77;;;;;;;3.54;73.45;101761.23;450262;117;922622;-75
2022/11/09 02:02:21;;;;;;;46.24;39.45;;;;;;;3.52;73.47;101760.53;450342;117;922572;-76
2022/11/09 02:03:27;;;;;;;42.55;38.18;;;;;;;3.51;73.63;101769.61;450337;117;922523;-76
2022/11/09 02:04:39;;;;;;;44.49;39.42;;;;;;;3.50;73.69;101770.59;450165;117;930633;-75
2022/11/09 02:05:45;;;;;;;43.40;38.06;;;;;;;3.50;73.79;101770.59;450143;117;922519;-75
2022/11/09 02:06:49;;;;;;;42.96;38.31;;;;;;;3.51;73.88;101771.45;450264;117;922479;-75
2022/11/09 02:07:55;;;;;;;50.64;39.64;;;;;;;3.50;73.80;101778.69;450263;117;922740;-75
2022/11/09 02:09:04;;;;;;;42.81;37.64;;;;;;;3.50;73.82;101765.20;450374;117;922958;-74
2022/11/09 02:10:14;;;;;;;46.32;36.31;;;;;;;3.50;73.87;101770.59;450098;117;922979;-75
2022/11/09 02:11:21;;;;;;;43.82;37.38;;;;;;;3.50;73.87;101778.69;449360;117;922637;-75
2022/11/09 02:12:25;;;;;;;47.31;38.82;;;;;;;3.51;73.98;101768.75;450233;117;922781;-76
2022/11/09 02:13:29;;;;;;;43.44;38.36;;;;;;;3.50;74.00;101784.08;450354;117;922660;-75
2022/11/09 02:14:34;;;;;;;45.86;38.29;;;;;;;3.52;74.00;101787.50;450267;117;922684;-75
2022/11/09 02:15:37;;;;;;;41.22;36.83;;;;;;;3.51;74.02;101783.09;450229;117;922577;-76
2022/11/09 02:16:44;;;;;;;37.80;33.79;;;;;;;3.51;73.99;101788.48;450088;117;922649;-75
2022/11/09 02:17:50;;;;;;;41.12;36.84;;;;;;;3.52;74.07;101790.20;456434;115;922436;-76
2022/11/09 02:18:56;;;;;;;40.48;35.83;;;;;;;3.51;74.03;101791.18;457277;116;923014;-76
2022/11/09 02:20:00;;;;;;;36.07;32.62;;;;;;;3.52;73.98;101794.73;457219;116;922578;-75
2022/11/09 02:21:04;;;;;;;38.72;34.78;;;;;;;3.52;73.97;101798.28;457372;116;922670;-76
2022/11/09 02:22:07;;;;;;;37.81;33.78;;;;;;;3.51;73.98;101793.88;457284;116;923067;-75
2022/11/09 02:23:10;;;;;;;32.53;29.34;;;;;;;3.52;73.97;101794.73;457325;116;930043;-76
2022/11/09 02:24:13;;;;;;;33.62;30.17;;;;;;;3.51;73.96;101798.41;457275;116;922529;-75
2022/11/09 02:25:17;;;;;;;32.98;29.96;;;;;;;3.51;74.03;101796.58;457278;116;930944;-76
2022/11/09 02:26:23;;;;;;;33.64;30.12;;;;;;;3.51;74.03;101796.58;457276;116;923131;-75
2022/11/09 02:27:26;;;;;;;31.61;28.61;;;;;;;3.51;74.14;101801.97;456236;116;923199;-76
2022/11/09 02:28:31;;;;;;;28.15;25.74;;;;;;;3.50;74.08;101800.26;457400;116;923058;-75
2022/11/09 02:29:40;;;;;;;25.82;23.77;;;;;;;3.50;74.08;101800.26;457214;116;922529;-77
2022/11/09 02:30:47;;;;;;;28.21;25.83;;;;;;;3.51;74.16;101801.97;457071;116;930319;-75
2022/11/09 02:31:56;;;;;;;23.95;22.19;;;;;;;3.50;74.12;101797.56;457155;116;922584;-75
2022/11/09 02:32:59;;;;;;;22.14;20.65;;;;;;;3.50;74.08;101792.17;457149;116;922596;-76
2022/11/09 02:34:14;;;;;;;22.30;20.64;;;;;;;3.50;74.10;101794.86;460879;114;922724;-75
2022/11/09 02:35:17;;;;;;;23.33;21.14;;;;;;;3.50;74.11;101797.56;465223;114;922534;-74
2022/11/09 02:36:22;;;;;;;27.06;24.71;;;;;;;3.51;74.21;101793.02;465432;114;922482;-75
2022/11/09 02:37:29;;;;;;;28.13;25.29;;;;;;;3.51;74.18;101801.11;463822;114;922761;-75
2022/11/09 02:38:32;;;;;;;27.75;25.02;;;;;;;3.49;74.18;101797.69;465269;114;922624;-75
2022/11/09 02:39:36;;;;;;;29.96;25.91;;;;;;;3.47;74.04;101797.00;465334;114;922531;-75
2022/11/09 02:40:43;;;;;;;32.28;27.85;;;;;;;3.45;74.04;101797.13;465283;114;922755;-75
2022/11/09 02:41:49;;;;;;;28.17;25.31;;;;;;;3.43;74.06;101793.70;465251;114;922723;-75
2022/11/09 02:42:52;;;;;;;27.49;24.88;;;;;;;3.42;74.16;101793.88;465021;114;922858;-76
2022/11/09 02:43:58;;;;;;;24.34;22.18;;;;;;;3.41;74.19;101786.77;465321;114;922874;-75
2022/11/09 02:45:01;;;;;;;25.99;23.63;;;;;;;3.38;74.10;101785.19;465260;114;922519;-75
2022/11/09 02:46:05;;;;;;;27.02;24.35;;;;;;;3.38;74.08;101795.11;465349;114;922893;-75
2022/11/09 02:47:08;;;;;;;26.87;24.45;;;;;;;3.37;74.13;101796.95;465458;114;922752;-74
2022/11/09 02:48:11;;;;;;;25.83;23.54;;;;;;;3.36;74.25;101795.28;465464;114;922949;-75
2022/11/09 02:49:14;;;;;;;22.76;21.01;;;;;;;3.34;74.28;101790.02;465376;114;922655;-76
2022/11/09 02:50:17;;;;;;;23.58;21.79;;;;;;;3.34;74.21;101794.55;465353;114;922997;-74
2022/11/09 02:51:20;;;;;;;20.40;19.04;;;;;;;3.34;74.21;101795.41;465346;114;922655;-75
2022/11/09 02:52:24;;;;;;;21.02;19.56;;;;;;;3.35;74.27;101793.56;465313;114;922607;-75
2022/11/09 02:53:27;;;;;;;20.60;18.92;;;;;;;3.35;74.31;101790.88;455730;116;922669;-75
2022/11/09 02:54:30;;;;;;;21.57;17.01;;;;;;;3.35;74.33;101796.27;456073;114;922977;-73
2022/11/09 02:55:33;;;;;;;21.57;19.31;;;;;;;3.36;74.27;101801.48;455736;116;931174;-75
2022/11/09 02:56:36;;;;;;;31.43;18.44;;;;;;;3.34;74.25;101795.41;456072;114;922987;-75
2022/11/09 02:57:39;;;;;;;17.73;16.16;;;;;;;3.32;74.17;101794.68;465421;114;922705;-76
2022/11/09 02:58:44;;;;;;;30.81;17.25;;;;;;;3.27;74.14;101791.55;455701;116;922573;-75
2022/11/09 02:59:47;;;;;;;18.35;15.44;;;;;;;3.25;74.17;101796.21;456131;114;922986;-75
2022/11/09 03:00:50;;;;;;;25.09;15.20;;;;;;;3.21;74.21;101793.94;465334;114;924010;-75
2022/11/09 03:01:53;;;;;;;18.39;16.11;;;;;;;3.19;74.29;101804.02;465419;114;922522;-76
2022/11/09 03:02:57;;;;;;;16.44;14.86;;;;;;;3.16;74.31;101798.89;465328;114;922539;-75
2022/11/09 03:04:00;;;;;;;17.36;15.87;;;;;;;3.13;74.52;101793.79;465286;114;922677;-76
2022/11/09 03:05:04;;;;;;;15.77;14.68;;;;;;;3.12;74.51;101794.77;465448;114;922620;-75
2022/11/09 03:06:07;;;;;;;18.11;16.85;;;;;;;3.11;74.69;101788.53;465404;114;922834;-76
2022/11/09 03:07:10;;;;;;;19.24;17.98;;;;;;;3.12;74.72;101792.08;465262;114;922646;-76
2022/11/09 03:08:14;;;;;;;19.15;17.94;;;;;;;3.12;74.80;101789.38;465292;114;922536;-75
2022/11/09 03:09:18;;;;;;;19.64;18.34;;;;;;;3.13;74.91;101789.25;465316;114;922455;-75
2022/11/09 03:10:21;;;;;;;19.31;18.06;;;;;;;3.16;75.03;101798.89;465237;114;930503;-76
2022/11/09 03:11:24;;;;;;;19.31;18.11;;;;;;;3.19;75.19;101796.80;465288;114;930598;-75
2022/11/09 03:12:30;;;;;;;19.46;18.03;;;;;;;3.22;75.14;101792.95;465332;114;922516;-75
2022/11/09 03:13:35;;;;;;;17.77;16.59;;;;;;;3.26;75.30;101797.92;464651;114;922509;-74
2022/11/09 03:14:39;;;;;;;15.36;14.37;;;;;;;3.29;75.28;101788.73;465368;114;922585;-75
2022/11/09 03:15:42;;;;;;;17.12;15.96;;;;;;;3.32;75.21;101791.12;465379;114;923106;-76
2022/11/09 03:16:45;;;;;;;16.77;15.68;;;;;;;3.33;75.16;101796.39;459287;114;922622;-75
2022/11/09 03:17:51;;;;;;;15.54;14.51;;;;;;;3.35;75.15;101793.56;456816;115;923088;-75
2022/11/09 03:18:54;;;;;;;15.96;14.95;;;;;;;3.38;75.14;101795.97;457241;116;922450;-75
2022/11/09 03:19:57;;;;;;;15.93;14.92;;;;;;;3.41;75.14;101789.47;457235;116;923026;-75
2022/11/09 03:21:05;;;;;;;16.13;15.14;;;;;;;3.42;75.18;101786.61;447850;118;930416;-76
2022/11/09 03:22:08;;;;;;;17.47;16.29;;;;;;;3.45;75.21;101786.34;448589;116;923199;-76
2022/11/09 03:23:11;;;;;;;17.93;16.83;;;;;;;3.49;75.22;101797.69;457155;116;922952;-75
2022/11/09 03:24:15;;;;;;;16.73;15.64;;;;;;;3.51;75.17;101793.88;457189;116;922492;-76
2022/11/09 03:25:18;;;;;;;19.41;18.19;;;;;;;3.53;75.09;101791.88;457210;116;922544;-75
2022/11/09 03:26:21;;;;;;;16.09;15.03;;;;;;;3.57;74.92;101792.47;457218;116;923230;-76
2022/11/09 03:27:24;;;;;;;16.76;15.65;;;;;;;3.58;74.92;101805.82;457141;116;922477;-75
2022/11/09 03:28:27;;;;;;;16.31;15.28;;;;;;;3.59;74.81;101793.16;457245;116;922686;-75
2022/11/09 03:29:30;;;;;;;17.06;16.05;;;;;;;3.61;74.84;101791.19;457220;116;922810;-75
2022/11/09 03:30:34;;;;;;;15.88;14.94;;;;;;;3.62;74.71;101795.59;457768;116;922568;-76
2022/11/09 03:31:38;;;;;;;15.73;14.66;;;;;;;3.61;74.64;101797.44;457749;116;922559;-75
2022/11/09 03:32:42;;;;;;;14.61;13.71;;;;;;;3.62;74.57;101795.59;454820;116;923200;-74
2022/11/09 03:33:47;;;;;;;16.37;15.37;;;;;;;3.62;74.43;101796.45;455107;116;922656;-76
2022/11/09 03:34:50;;;;;;;12.99;12.09;;;;;;;;;;457236;116;922572;-76
2022/11/09 03:35:53;;;;;;;15.71;14.78;;;;;;;3.61;74.10;101793.88;457255;115;922543;-75
2022/11/09 03:36:57;;;;;;;14.60;13.49;;;;;;;3.60;74.12;101792.17;459861;114;922610;-76
2022/11/09 03:38:01;;;;;;;14.98;14.07;;;;;;;3.59;74.16;101793.16;464882;114;922964;-75
2022/11/09 03:39:04;;;;;;;13.67;12.76;;;;;;;3.60;74.17;101794.88;464979;114;922553;-76
2022/11/09 03:40:08;;;;;;;13.62;12.65;;;;;;;3.61;74.24;101799.28;455777;116;922711;-75
2022/11/09 03:41:12;;;;;;;14.01;13.11;;;;;;;3.62;74.12;101795.59;456295;114;923212;-77
2022/11/09 03:42:15;;;;;;;14.52;13.61;;;;;;;3.61;74.06;101800.13;464827;114;930273;-75
2022/11/09 03:43:19;;;;;;;14.64;13.74;;;;;;;3.61;74.00;101794.73;455870;116;922563;-76
2022/11/09 03:44:22;;;;;;;14.36;13.46;;;;;;;3.60;73.93;101802.96;456124;114;922662;-75
2022/11/09 03:45:26;;;;;;;13.21;12.40;;;;;;;3.59;74.07;101796.71;464912;114;930319;-75
2022/11/09 03:46:29;;;;;;;13.66;12.84;;;;;;;3.60;74.15;101793.03;464872;114;922608;-75
2022/11/09 03:47:33;;;;;;;13.69;12.86;;;;;;;3.61;74.16;101794.73;464968;114;922669;-76
2022/11/09 03:48:36;;;;;;;13.64;12.80;;;;;;;3.62;74.10;101788.36;464950;114;923040;-75
2022/11/09 03:49:39;;;;;;;13.47;12.67;;;;;;;3.64;74.04;101791.75;464982;114;922930;-76
2022/11/09 03:50:42;;;;;;;14.60;13.70;;;;;;;3.65;73.99;101788.06;465014;114;922544;-76
2022/11/09 03:51:45;;;;;;;14.48;13.59;;;;;;;3.67;73.98;101794.18;465034;114;922518;-77
2022/11/09 03:52:48;;;;;;;15.27;14.31;;;;;;;3.67;74.05;101794.18;464928;114;922599;-75
2022/11/09 03:53:51;;;;;;;15.18;14.31;;;;;;;3.70;74.01;101793.03;465017;114;922542;-74
2022/11/09 03:54:54;;;;;;;16.26;15.15;;;;;;;3.73;74.07;101795.46;464970;114;922994;-76
2022/11/09 03:55:57;;;;;;;17.56;16.18;;;;;;;3.77;73.80;101799.58;465020;114;922594;-76
2022/11/09 03:57:00;;;;;;;17.17;16.07;;;;;;;3.77;73.80;101799.58;464884;114;923286;-75
2022/11/09 03:58:05;;;;;;;16.43;15.47;;;;;;;3.80;73.87;101798.45;464978;114;922758;-75
2022/11/09 03:59:08;;;;;;;18.72;17.32;;;;;;;3.82;73.94;101809.94;464863;114;922626;-76
2022/11/09 04:00:14;;;;;;;19.02;17.82;;;;;;;3.84;73.82;101805.27;464976;114;930479;-75
2022/11/09 04:01:16;;;;;;;19.90;18.64;;;;;;;3.86;73.85;101808.69;464778;114;922518;-75
2022/11/09 04:02:20;;;;;;;19.46;18.24;;;;;;;3.88;73.81;101809.37;464982;114;922910;-75
2022/11/09 04:03:23;;;;;;;20.72;19.37;;;;;;;3.91;73.79;101809.97;465013;114;922846;-76
2022/11/09 04:04:26;;;;;;;21.85;20.09;;;;;;;3.93;73.82;101809.80;465056;114;922571;-75
2022/11/09 04:05:29;;;;;;;21.56;20.02;;;;;;;3.94;73.69;101817.77;464999;114;922479;-75
2022/11/09 04:06:32;;;;;;;22.60;20.96;;;;;;;3.95;73.72;101818.62;465061;114;923110;-76
2022/11/09 04:07:35;;;;;;;22.35;20.71;;;;;;;3.97;73.72;101816.64;465017;114;922400;-75
2022/11/09 04:08:38;;;;;;;23.57;21.80;;;;;;;3.98;73.71;101819.17;465065;114;922472;-75
2022/11/09 04:09:41;;;;;;;22.68;21.07;;;;;;;4.00;73.58;101821.73;465059;114;922803;-75
2022/11/09 04:10:44;;;;;;;23.96;22.34;;;;;;;4.00;73.53;101822.59;464988;114;922575;-75
2022/11/09 04:11:47;;;;;;;24.05;22.11;;;;;;;4.02;73.56;101825.16;465043;114;922524;-77
2022/11/09 04:12:50;;;;;;;25.04;23.20;;;;;;;4.03;73.53;101829.53;465048;114;922466;-76
2022/11/09 04:13:53;;;;;;;23.88;21.96;;;;;;;4.02;73.42;101831.41;465022;114;922815;-75
2022/11/09 04:14:56;;;;;;;24.42;22.64;;;;;;;4.03;73.36;101821.44;465046;114;922662;-75
2022/11/09 04:15:59;;;;;;;26.60;24.37;;;;;;;4.02;73.36;101823.31;465016;114;922594;-75
2022/11/09 04:17:02;;;;;;;27.18;24.91;;;;;;;4.03;73.46;101834.93;457351;115;922588;-76
2022/11/09 04:18:05;;;;;;;25.79;23.62;;;;;;;4.04;73.37;101825.84;456194;116;922856;-75
2022/11/09 04:19:08;;;;;;;26.49;24.02;;;;;;;4.05;73.38;101830.26;453326;117;922654;-76
2022/11/09 04:20:12;;;;;;;25.76;23.71;;;;;;;4.04;73.30;101829.40;444373;119;922856;-75
2022/11/09 04:21:15;;;;;;;27.26;24.83;;;;;;;4.05;73.30;101831.11;442632;120;930296;-75
2022/11/09 04:22:20;;;;;;;26.34;24.36;;;;;;;4.06;73.27;101831.97;435541;121;930391;-75
2022/11/09 04:23:23;;;;;;;27.55;25.19;;;;;;;4.07;73.24;101828.28;436291;121;922556;-77
2022/11/09 04:24:26;;;;;;;28.24;25.57;;;;;;;4.08;73.31;101830.81;436416;121;922567;-75
2022/11/09 04:25:32;;;;;;;27.91;25.32;;;;;;;4.08;73.22;101833.52;436377;121;922594;-75
2022/11/09 04:26:35;;;;;;;26.87;24.33;;;;;;;4.10;73.30;101833.37;436278;121;922708;-76
2022/11/09 04:27:38;;;;;;;27.87;25.50;;;;;;;4.10;73.30;101838.78;436431;121;922481;-75
2022/11/09 04:28:41;;;;;;;26.68;24.39;;;;;;;4.11;73.30;101827.84;428712;123;922780;-75
2022/11/09 04:29:44;;;;;;;26.31;24.01;;;;;;;4.13;73.34;101825.02;440313;119;922984;-75
2022/11/09 04:30:47;;;;;;;25.38;23.25;;;;;;;4.14;73.29;101834.79;444986;119;922980;-75
2022/11/09 04:31:50;;;;;;;25.55;23.62;;;;;;;4.15;73.27;101831.10;445026;119;922538;-75
2022/11/09 04:32:55;;;;;;;25.03;23.25;;;;;;;4.17;73.27;101834.52;444934;119;922782;-74
2022/11/09 04:33:58;;;;;;;26.84;24.27;;;;;;;4.18;73.27;101828.13;441961;119;930185;-75
2022/11/09 04:35:01;;;;;;;27.13;24.73;;;;;;;4.20;73.26;101832.38;444517;119;930359;-75
2022/11/09 04:36:04;;;;;;;25.49;23.27;;;;;;;4.20;73.33;101826.98;444545;118;922577;-76
2022/11/09 04:37:08;;;;;;;26.95;24.54;;;;;;;4.22;73.28;101832.24;441527;119;922403;-75
2022/11/09 04:38:12;;;;;;;27.86;25.59;;;;;;;4.23;73.37;101831.25;451518;117;922478;-76
2022/11/09 04:39:15;;;;;;;26.45;23.88;;;;;;;4.24;73.28;101835.66;451220;117;922254;-75
2022/11/09 04:40:18;;;;;;;25.83;23.77;;;;;;;4.25;73.24;101840.04;444097;119;922730;-76
2022/11/09 04:41:21;;;;;;;27.84;25.12;;;;;;;4.25;73.32;101837.34;444111;119;922223;-75
2022/11/09 04:42:24;;;;;;;28.19;25.58;;;;;;;4.26;73.20;101840.90;444180;119;921997;-75
2022/11/09 04:43:27;;;;;;;28.28;25.59;;;;;;;4.26;73.19;101835.50;443357;119;922665;-76
2022/11/09 04:44:30;;;;;;;28.80;26.01;;;;;;;4.27;73.21;101835.36;443176;119;922611;-75
2022/11/09 04:45:34;;;;;;;27.19;24.76;;;;;;;4.27;73.23;101838.06;443161;119;922471;-75
2022/11/09 04:46:37;;;;;;;26.01;23.81;;;;;;;4.29;73.25;101838.78;443107;119;923364;-76
2022/11/09 04:47:40;;;;;;;27.19;24.72;;;;;;;4.28;73.27;101842.47;443117;119;930325;-75
2022/11/09 04:48:43;;;;;;;26.56;24.18;;;;;;;4.30;73.36;101843.16;443185;119;923137;-75
2022/11/09 04:49:46;;;;;;;27.25;24.75;;;;;;;4.31;73.31;101844.88;443252;119;922928;-76
2022/11/09 04:50:49;;;;;;;29.82;27.19;;;;;;;4.32;73.38;101851.98;443171;119;922608;-75
2022/11/09 04:51:52;;;;;;;27.73;25.04;;;;;;;4.32;73.36;101851.13;443181;119;923327;-76